Erwin, Mississippi
Current Conditions -  °F | °C
As of 3:53 PM on Tuesday 21 Oct 2014 (Local Time) from KGLH Reporting Station
Scattered Clouds Scattered Clouds  
Wind Chill: 81°   Ceiling: Unl
Heat Index: 81°   Visibility: 10mi
Dew Point: 55°   Wind: 7mph
Humidity: 41%   Direction: 30°NNE
Pressure: 30.02"   Gusts: NA
Location:  33.1025°N, 91.0983°W
Report Text: KGLH 212053Z AUTO 03006KT 10SM SCT050 27/13 A3002 RMK AO2 SLP170 T02720128 56019
Loading
Personal Weather Stations






























Interactive Weather Map
Tropical Storm Tracking
New forecast layout! Learn more

10-Day Weather Forecast

Advertisements
Track Severe Weather on mobile